Time;durP1;ratioP1;P1;durP2;ratioP2;P2;SDS_P1;SDS_P2;PMS_P1;PMS_P2;Temp;Humidity;BMP_temperature;BMP_pressure;BME280_temperature;BME280_humidity;BME280_pressure;Samples;Min_cycle;Max_cycle;Signal;HPM_P1;HPM_P2
2022/11/07 00:00:09;;;;;;;1999.90;999.90;;;;;;;6.82;100.00;100255.81;5023944;28;20449;-77
2022/11/07 00:02:36;;;;;;;1999.90;999.90;;;;;;;6.92;100.00;100255.00;5025193;28;20037;-77
2022/11/07 00:05:02;;;;;;;1999.90;999.90;;;;;;;6.96;100.00;100260.22;5023367;28;20447;-77
2022/11/07 00:07:27;;;;;;;1999.90;999.90;;;;;;;7.00;100.00;100251.50;5025780;28;20037;-77
2022/11/07 00:09:53;;;;;;;1999.90;999.90;;;;;;;7.07;100.00;100247.16;5027878;28;20496;-77
2022/11/07 00:12:18;;;;;;;1999.90;999.90;;;;;;;7.10;100.00;100252.44;5023852;28;20029;-77
2022/11/07 00:14:43;;;;;;;1999.90;999.90;;;;;;;7.18;100.00;100249.84;5024168;28;20129;-76
2022/11/07 00:17:09;;;;;;;1999.90;999.90;;;;;;;7.24;100.00;100250.72;5023856;28;20129;-77
2022/11/07 00:19:34;;;;;;;1999.90;999.90;;;;;;;7.30;100.00;100243.72;5025147;28;20744;-77
2022/11/07 00:21:59;;;;;;;1999.90;999.90;;;;;;;7.34;100.00;100243.75;5022930;28;20042;-76
2022/11/07 00:24:25;;;;;;;1999.90;999.90;;;;;;;7.44;100.00;100247.25;5025965;28;20099;-77
2022/11/07 00:26:50;;;;;;;1999.90;999.90;;;;;;;7.53;100.00;100256.91;5030190;28;20112;-77
2022/11/07 00:29:18;;;;;;;1999.90;999.90;;;;;;;7.65;100.00;100246.41;5041652;28;20061;-76
2022/11/07 00:31:43;;;;;;;1999.90;999.90;;;;;;;7.74;100.00;100253.44;5026360;28;20112;-77
2022/11/07 00:34:09;;;;;;;1999.90;999.90;;;;;;;7.89;100.00;100256.09;5025714;28;20883;-77
2022/11/07 00:36:35;;;;;;;1999.90;999.90;;;;;;;8.02;100.00;100251.72;5029521;28;20025;-77
2022/11/07 00:39:00;;;;;;;1999.90;999.90;;;;;;;8.12;100.00;100249.06;5022413;28;20037;-77
2022/11/07 00:41:26;;;;;;;1999.90;999.90;;;;;;;8.22;100.00;100238.53;5021147;28;20069;-76
2022/11/07 00:43:51;;;;;;;1999.90;999.90;;;;;;;8.31;100.00;100242.03;5023387;28;20500;-77
2022/11/07 00:46:18;;;;;;;1999.90;999.90;;;;;;;8.39;100.00;100246.41;5023521;28;20434;-77
2022/11/07 00:48:44;;;;;;;1999.90;999.90;;;;;;;8.44;100.00;100255.22;5020108;28;20037;-77
2022/11/07 00:51:15;;;;;;;1999.90;999.90;;;;;;;8.47;100.00;100258.69;5025184;28;20442;-77
2022/11/07 00:53:41;;;;;;;1999.90;999.90;;;;;;;8.46;100.00;100258.69;5024829;28;20038;-77
2022/11/07 00:56:10;;;;;;;1999.90;999.90;;;;;;;8.41;100.00;100260.44;5023704;28;20373;-77
2022/11/07 00:58:35;;;;;;;1999.90;999.90;;;;;;;8.44;100.00;100271.84;5024296;28;20064;-77
2022/11/07 01:01:08;;;;;;;1999.90;999.90;;;;;;;8.47;100.00;100265.72;5022143;28;20396;-77
2022/11/07 01:06:18;;;;;;;1999.90;999.90;;;;;;;8.44;100.00;100255.22;5021667;28;20562;-77
2022/11/07 01:08:43;;;;;;;1999.90;999.90;;;;;;;8.40;100.00;100253.44;5024231;28;20057;-77
2022/11/07 01:11:08;;;;;;;1999.90;999.90;;;;;;;8.38;100.00;100242.88;5021024;28;20088;-77
2022/11/07 01:13:34;;;;;;;1999.90;999.90;;;;;;;8.35;100.00;100246.41;5025612;28;20041;-77
2022/11/07 01:16:00;;;;;;;1999.90;999.90;;;;;;;8.37;100.00;100258.69;5030097;28;20037;-77
2022/11/07 01:18:25;;;;;;;1999.90;999.90;;;;;;;8.43;100.00;100251.69;5027871;28;20044;-77
2022/11/07 01:20:51;;;;;;;1999.90;999.90;;;;;;;8.43;99.88;100259.56;5027912;28;20041;-77
2022/11/07 01:23:17;;;;;;;1999.90;999.90;;;;;;;8.53;99.84;100255.16;5021959;28;20046;-77
2022/11/07 01:25:42;;;;;;;1999.90;999.90;;;;;;;8.55;98.87;100256.91;5023606;28;20037;-77
2022/11/07 01:28:08;;;;;;;1999.90;999.90;;;;;;;8.63;99.63;100249.00;5032101;28;20048;-77
2022/11/07 01:30:38;;;;;;;1999.90;999.90;;;;;;;8.65;99.15;100246.38;5027659;28;20064;-77
2022/11/07 01:33:03;;;;;;;1999.90;999.90;;;;;;;8.64;98.61;100252.50;5021318;28;20034;-77
2022/11/07 01:35:28;;;;;;;1999.90;999.90;;;;;;;8.68;99.33;100252.50;5025073;28;20060;-77
2022/11/07 01:37:53;;;;;;;1999.90;999.90;;;;;;;8.78;98.78;100256.00;5023878;28;20068;-77
2022/11/07 01:40:19;;;;;;;1999.90;999.90;;;;;;;8.82;98.07;100248.94;5023398;28;20040;-77
2022/11/07 01:42:44;;;;;;;1999.90;999.90;;;;;;;8.80;98.56;100235.78;5020617;28;20030;-77
2022/11/07 01:45:19;;;;;;;1999.90;999.90;;;;;;;8.86;98.41;100227.03;5023462;28;20488;-77
2022/11/07 01:47:45;;;;;;;1999.90;999.90;;;;;;;8.87;98.81;100229.63;5021507;28;20038;-77
2022/11/07 01:50:10;;;;;;;1999.90;999.90;;;;;;;8.77;98.09;100243.69;5023258;28;20040;-77
2022/11/07 01:52:40;;;;;;;1999.90;999.90;;;;;;;8.70;97.86;100244.63;5022639;28;20073;-78
2022/11/07 01:55:16;;;;;;;1999.90;999.90;;;;;;;8.61;98.01;100253.41;5024092;28;20044;-77
2022/11/07 01:57:48;;;;;;;1999.90;999.90;;;;;;;8.49;98.18;100245.56;5021859;28;20045;-77
2022/11/07 02:00:17;;;;;;;1999.90;999.90;;;;;;;8.30;98.59;100249.91;5021684;28;20042;-77
2022/11/07 02:02:45;;;;;;;1999.90;999.90;;;;;;;8.18;99.82;100245.56;5019377;28;20445;-77
2022/11/07 02:05:16;;;;;;;1999.90;999.90;;;;;;;8.09;100.00;100237.66;5023470;28;20116;-77
2022/11/07 02:07:42;;;;;;;1999.90;999.90;;;;;;;8.04;99.68;100239.41;5022414;28;20402;-77
2022/11/07 02:10:09;;;;;;;1999.90;999.90;;;;;;;7.98;99.99;100256.06;5024219;28;20099;-76
2022/11/07 02:12:34;;;;;;;1999.90;999.90;;;;;;;7.99;100.00;100256.94;5020479;28;20065;-77
2022/11/07 02:15:00;;;;;;;1999.90;999.90;;;;;;;7.94;100.00;100250.81;5020705;28;20076;-77
2022/11/07 02:17:25;;;;;;;1999.90;999.90;;;;;;;7.87;99.82;100245.56;5024093;28;20057;-77
2022/11/07 02:19:53;;;;;;;1999.90;999.90;;;;;;;7.79;99.76;100249.06;5022383;28;20042;-77
2022/11/07 02:22:24;;;;;;;1999.90;999.90;;;;;;;7.72;99.91;100255.19;5022144;28;20045;-77
2022/11/07 02:24:56;;;;;;;1999.90;999.90;;;;;;;7.66;100.00;100258.69;5020445;28;20485;-76
2022/11/07 02:27:24;;;;;;;1999.90;999.90;;;;;;;7.59;100.00;100255.16;5022271;28;20029;-77
2022/11/07 02:29:56;;;;;;;1999.90;999.90;;;;;;;7.55;100.00;100252.56;5022409;28;20092;-77
2022/11/07 02:32:21;;;;;;;1999.90;999.90;;;;;;;7.51;100.00;100248.16;5019061;28;20092;-77
2022/11/07 02:34:57;;;;;;;1999.90;999.90;;;;;;;7.48;100.00;100254.28;5022940;28;20072;-77
2022/11/07 02:37:28;;;;;;;1999.90;999.90;;;;;;;7.41;100.00;100252.50;5022458;28;20041;-77
2022/11/07 02:39:54;;;;;;;1999.90;999.90;;;;;;;7.47;100.00;100263.03;5023416;28;20037;-77
2022/11/07 02:42:19;;;;;;;1999.90;999.90;;;;;;;7.55;100.00;100256.03;5019573;28;20036;-76
2022/11/07 02:44:46;;;;;;;1999.90;999.90;;;;;;;7.65;100.00;100256.91;5021278;28;20284;-77
2022/11/07 02:47:11;;;;;;;1999.90;999.90;;;;;;;7.76;100.00;100249.94;5027094;28;20078;-77
2022/11/07 02:49:37;;;;;;;1999.90;999.90;;;;;;;7.92;100.00;100260.47;5028361;28;20029;-77
2022/11/07 02:52:02;;;;;;;1999.90;999.90;;;;;;;8.02;100.00;100264.84;5025264;28;20083;-77
2022/11/07 02:54:27;;;;;;;1999.90;999.90;;;;;;;8.04;99.67;100263.06;5029430;28;20037;-77
2022/11/07 02:56:53;;;;;;;1999.90;999.90;;;;;;;8.04;100.00;100268.34;5027995;28;20052;-77
2022/11/07 02:59:18;;;;;;;1999.90;999.90;;;;;;;8.04;99.91;100274.50;5022703;28;20022;-77
2022/11/07 03:01:43;;;;;;;1999.90;999.90;;;;;;;8.03;99.83;100272.72;5021590;28;20434;-77
2022/11/07 03:04:09;;;;;;;1999.90;999.90;;;;;;;8.04;99.47;100271.88;5021807;28;20033;-76
2022/11/07 03:06:34;;;;;;;1999.90;999.90;;;;;;;7.96;99.56;100263.06;5020308;28;20060;-77
2022/11/07 03:08:59;;;;;;;1999.90;999.90;;;;;;;7.84;98.88;100261.34;5022905;28;20037;-77
2022/11/07 03:11:24;;;;;;;1999.90;999.90;;;;;;;7.73;99.45;100270.97;5024401;28;20053;-77
2022/11/07 03:13:50;;;;;;;1999.90;999.90;;;;;;;7.58;99.98;100281.44;5020856;28;20030;-77
2022/11/07 03:16:18;;;;;;;1999.90;999.90;;;;;;;7.41;100.00;100278.75;5025854;28;20092;-77
2022/11/07 03:18:43;;;;;;;1999.90;999.90;;;;;;;7.33;100.00;100283.13;5020843;28;20566;-77
2022/11/07 03:21:08;;;;;;;1999.90;999.90;;;;;;;7.29;100.00;100297.13;5022554;28;20124;-77
2022/11/07 03:23:34;;;;;;;1999.90;999.90;;;;;;;7.25;100.00;100294.47;5019743;28;20038;-77
2022/11/07 03:26:00;;;;;;;1999.90;999.90;;;;;;;7.25;100.00;100298.84;5022495;28;20029;-77
2022/11/07 03:28:25;;;;;;;1999.90;999.90;;;;;;;7.24;100.00;100297.09;5019981;28;20128;-77
2022/11/07 03:30:51;;;;;;;1999.90;999.90;;;;;;;7.27;100.00;100297.09;5021636;28;20048;-76
2022/11/07 03:33:16;;;;;;;1999.90;999.90;;;;;;;7.28;100.00;100296.22;5022696;28;20116;-77
2022/11/07 03:35:42;;;;;;;1999.90;999.90;;;;;;;7.32;100.00;100302.38;5024191;28;20038;-77
2022/11/07 03:38:08;;;;;;;1999.90;999.90;;;;;;;7.37;100.00;100304.13;5039984;28;20037;-77
2022/11/07 03:40:34;;;;;;;1999.90;999.90;;;;;;;7.44;100.00;100315.53;5031227;28;20041;-77
2022/11/07 03:42:59;;;;;;;1999.90;999.90;;;;;;;7.49;100.00;100324.28;5035946;28;20095;-76
2022/11/07 03:45:24;;;;;;;1999.90;999.90;;;;;;;7.54;100.00;100330.44;5024144;28;20488;-77
2022/11/07 03:47:50;;;;;;;1999.90;999.90;;;;;;;7.67;100.00;100328.72;5024875;28;20450;-77
2022/11/07 03:50:18;;;;;;;1999.90;999.90;;;;;;;7.75;99.73;100326.97;5025378;28;20041;-77
2022/11/07 03:52:44;;;;;;;1999.90;999.90;;;;;;;7.82;99.32;100328.75;5023390;28;20049;-77
2022/11/07 03:55:11;;;;;;;1999.90;999.90;;;;;;;7.91;98.31;100333.13;5028442;28;20396;-76
2022/11/07 03:57:37;;;;;;;1999.90;999.90;;;;;;;7.90;97.75;100328.78;5023662;28;20046;-77
2022/11/07 04:00:03;;;;;;;1999.90;999.90;;;;;;;8.02;97.29;100341.06;5024945;28;20041;-77
2022/11/07 04:02:37;;;;;;;1999.90;999.90;;;;;;;8.03;97.26;100332.31;5026273;28;20069;-77
2022/11/07 04:05:03;;;;;;;1999.90;999.90;;;;;;;8.06;97.25;100333.16;5022784;28;20069;-77
2022/11/07 04:07:28;;;;;;;1999.90;999.90;;;;;;;8.05;96.83;100335.81;5030739;28;20488;-77
2022/11/07 04:09:54;;;;;;;1999.90;999.90;;;;;;;8.07;96.07;100341.97;5027542;28;20161;-77
2022/11/07 04:17:47;;;;;;;1999.90;999.90;;;;;;;7.86;96.17;100340.16;5023208;28;20083;-77
2022/11/07 04:20:12;;;;;;;1999.90;999.90;;;;;;;7.81;96.45;100348.03;5024871;28;20136;-77
2022/11/07 04:22:38;;;;;;;1999.90;999.90;;;;;;;7.84;97.06;100355.91;5024161;28;20127;-77
2022/11/07 04:25:04;;;;;;;1999.90;999.90;;;;;;;7.86;96.98;100355.94;5023709;28;20050;-77
2022/11/07 04:27:41;;;;;;;1999.90;999.90;;;;;;;7.95;96.74;100355.94;5024911;28;20040;-77
2022/11/07 04:30:25;;;;;;;1999.90;999.90;;;;;;;8.04;96.59;100360.31;5029471;28;20030;-77
2022/11/07 04:32:53;;;;;;;1999.90;999.90;;;;;;;8.17;95.60;100367.34;5028256;28;20033;-77
2022/11/07 04:35:21;;;;;;;1999.90;999.90;;;;;;;8.28;95.17;100370.88;5026435;28;20078;-77
2022/11/07 04:37:47;;;;;;;1999.90;999.90;;;;;;;8.39;94.62;100364.75;5028314;28;20041;-77
2022/11/07 04:40:13;;;;;;;1999.90;999.90;;;;;;;8.51;94.90;100364.75;5032085;28;20411;-77
2022/11/07 04:42:39;;;;;;;1999.90;999.90;;;;;;;8.59;94.34;100360.38;5022340;28;20030;-77
2022/11/07 04:45:05;;;;;;;1999.90;999.90;;;;;;;8.69;94.41;100363.88;5024216;28;20033;-77
2022/11/07 04:47:31;;;;;;;1999.90;999.90;;;;;;;8.80;93.72;100363.84;5028640;28;20038;-77
2022/11/07 04:49:57;;;;;;;1999.90;999.90;;;;;;;8.86;93.86;100358.59;5025863;28;20515;-77
2022/11/07 04:52:22;;;;;;;1999.90;999.90;;;;;;;8.92;93.24;100364.72;5023104;28;20042;-77
2022/11/07 04:54:47;;;;;;;1999.90;999.90;;;;;;;8.99;93.38;100355.06;5025022;28;20501;-77
2022/11/07 04:57:14;;;;;;;1999.90;999.90;;;;;;;9.06;93.27;100371.69;5021651;28;20730;-77
2022/11/07 04:59:39;;;;;;;1999.90;999.90;;;;;;;9.13;93.42;100362.91;5025786;28;20061;-76
2022/11/07 05:02:05;;;;;;;1999.90;999.90;;;;;;;9.18;93.13;100367.28;5024239;28;20492;-77
2022/11/07 05:04:30;;;;;;;1999.90;999.90;;;;;;;9.20;93.26;100362.91;5023439;28;20420;-77
2022/11/07 05:06:55;;;;;;;1999.90;999.90;;;;;;;9.21;92.92;100366.41;5022587;28;20503;-77
2022/11/07 05:09:20;;;;;;;1999.90;999.90;;;;;;;9.30;93.10;100365.47;5028272;28;20559;-77
2022/11/07 05:11:46;;;;;;;1999.90;999.90;;;;;;;9.30;92.86;100370.75;5030248;28;20048;-78
2022/11/07 05:14:12;;;;;;;1999.90;999.90;;;;;;;9.34;93.13;100372.50;5021740;28;20025;-77
2022/11/07 05:16:40;;;;;;;1999.90;999.90;;;;;;;9.35;92.27;100385.69;5023621;28;20041;-77
2022/11/07 05:19:06;;;;;;;1999.90;999.90;;;;;;;9.43;91.83;100375.09;5030379;28;20133;-76
2022/11/07 05:21:31;;;;;;;1999.90;999.90;;;;;;;9.32;92.71;100374.25;5025661;28;20124;-76
2022/11/07 05:23:56;;;;;;;1999.90;999.90;;;;;;;9.33;93.43;100383.94;5022814;28;20149;-76
2022/11/07 05:26:22;;;;;;;1999.90;999.90;;;;;;;9.37;93.01;100386.53;5036087;28;20108;-75
2022/11/07 05:28:47;;;;;;;1999.90;999.90;;;;;;;9.34;92.79;100375.13;5032496;28;20049;-75
2022/11/07 05:31:15;;;;;;;1999.90;999.90;;;;;;;9.15;92.87;100375.19;5031324;28;20033;-75
2022/11/07 05:33:41;;;;;;;1999.90;999.90;;;;;;;9.05;93.81;100370.84;5024236;28;20040;-75
2022/11/07 05:36:14;;;;;;;1999.90;999.90;;;;;;;8.96;94.46;100377.00;5020067;28;20041;-75
2022/11/07 05:38:45;;;;;;;1999.90;999.90;;;;;;;8.94;96.07;100375.25;5026000;28;20048;-75
2022/11/07 05:41:11;;;;;;;1999.90;999.90;;;;;;;8.97;96.21;100380.50;5052030;23;20425;-74
2022/11/07 05:43:37;;;;;;;1999.90;999.90;;;;;;;8.92;95.54;100380.50;5022248;28;20033;-74
2022/11/07 05:46:03;;;;;;;1999.90;999.90;;;;;;;8.87;95.35;100386.66;5020449;28;20030;-74
2022/11/07 05:48:29;;;;;;;1999.90;999.90;;;;;;;8.74;96.07;100391.94;5021126;28;20088;-74
2022/11/07 05:50:56;;;;;;;1999.90;999.90;;;;;;;8.61;96.19;100390.19;5023857;28;20041;-74
2022/11/07 05:53:21;;;;;;;1999.90;999.90;;;;;;;8.51;97.14;100389.34;5021965;28;20052;-74
2022/11/07 05:55:47;;;;;;;1999.90;999.90;;;;;;;8.41;97.51;100400.72;5021284;28;20041;-74
2022/11/07 05:58:13;;;;;;;1999.90;999.90;;;;;;;8.35;98.01;100405.94;5023234;28;20045;-73
2022/11/07 06:00:39;;;;;;;1999.90;999.90;;;;;;;8.26;97.98;100408.56;5021439;28;20034;-74
2022/11/07 06:03:05;;;;;;;1999.90;999.90;;;;;;;8.16;98.71;100407.66;5024091;28;20037;-74
2022/11/07 06:05:30;;;;;;;1999.90;999.90;;;;;;;8.07;99.53;100405.03;5020840;28;20029;-74
2022/11/07 06:07:55;;;;;;;1999.90;999.90;;;;;;;8.01;100.00;100415.50;5021851;28;20133;-74
2022/11/07 06:10:21;;;;;;;1999.90;999.90;;;;;;;7.95;100.00;100408.50;5015982;28;20448;-74
2022/11/07 06:12:56;;;;;;;1999.90;999.90;;;;;;;7.93;100.00;100410.25;5024874;28;20478;-74
2022/11/07 06:15:21;;;;;;;1999.90;999.90;;;;;;;7.90;100.00;100416.34;5019988;28;20076;-74
2022/11/07 06:17:46;;;;;;;1999.90;999.90;;;;;;;7.90;100.00;100416.34;5023041;28;20064;-74
2022/11/07 06:20:11;;;;;;;1999.90;999.90;;;;;;;7.92;100.00;100410.25;5021607;28;20733;-74
2022/11/07 06:22:37;;;;;;;1999.90;999.90;;;;;;;7.93;100.00;100407.59;5021795;28;20055;-74
2022/11/07 06:25:03;;;;;;;1999.90;999.90;;;;;;;7.96;100.00;100414.63;5022805;28;20030;-74
2022/11/07 06:27:29;;;;;;;1999.90;999.90;;;;;;;7.98;100.00;100410.25;5020289;28;20030;-73
2022/11/07 06:29:55;;;;;;;1999.90;999.90;;;;;;;8.00;100.00;100413.78;5016593;28;20037;-74
2022/11/07 06:32:20;;;;;;;1999.90;999.90;;;;;;;7.99;100.00;100419.88;5016219;28;20160;-74
2022/11/07 06:34:46;;;;;;;1999.90;999.90;;;;;;;8.02;100.00;100420.78;5022155;28;20056;-74
2022/11/07 06:37:12;;;;;;;1999.90;999.90;;;;;;;8.02;100.00;100431.31;5005071;28;20045;-74
2022/11/07 06:39:37;;;;;;;1999.90;999.90;;;;;;;8.01;100.00;100428.66;5022622;28;20029;-74
2022/11/07 06:42:02;;;;;;;1999.90;999.90;;;;;;;8.03;100.00;100430.41;5023764;28;20053;-74
2022/11/07 06:44:28;;;;;;;1999.90;999.90;;;;;;;8.07;100.00;100426.94;5023554;28;20029;-74
2022/11/07 06:46:53;;;;;;;1999.90;999.90;;;;;;;8.12;100.00;100424.28;5020220;28;20038;-73
2022/11/07 06:49:18;;;;;;;1999.90;999.90;;;;;;;8.15;100.00;100421.69;5022382;28;20037;-74
2022/11/07 06:51:44;;;;;;;1999.90;999.90;;;;;;;8.17;100.00;100430.44;5020193;28;20034;-75
2022/11/07 06:54:09;;;;;;;1999.90;999.90;;;;;;;8.21;100.00;100426.94;5023268;28;20041;-74
2022/11/07 06:56:34;;;;;;;1999.90;999.90;;;;;;;8.24;100.00;100426.94;5020100;28;20054;-74
2022/11/07 06:59:00;;;;;;;1999.90;999.90;;;;;;;8.24;100.00;100424.31;5023084;28;20072;-74
2022/11/07 07:01:25;;;;;;;1999.90;999.90;;;;;;;8.28;100.00;100438.38;5019712;28;20045;-74
2022/11/07 07:03:50;;;;;;;1999.90;999.90;;;;;;;8.31;100.00;100441.88;5022486;28;20033;-74
2022/11/07 07:06:16;;;;;;;1999.90;999.90;;;;;;;8.33;100.00;100450.66;5020231;28;20044;-74
2022/11/07 07:08:42;;;;;;;1999.90;999.90;;;;;;;8.34;100.00;100454.16;5021051;28;20120;-74
2022/11/07 07:11:10;;;;;;;1999.90;999.90;;;;;;;8.39;100.00;100457.69;5022423;28;20447;-74
2022/11/07 07:13:36;;;;;;;1999.90;999.90;;;;;;;8.36;100.00;100457.66;5022497;28;20415;-74
2022/11/07 07:16:02;;;;;;;1999.90;999.90;;;;;;;8.41;100.00;100460.31;5019473;28;20048;-74
2022/11/07 07:18:28;;;;;;;1999.90;999.90;;;;;;;8.46;100.00;100461.19;5021963;28;20495;-74
2022/11/07 07:21:01;;;;;;;1999.90;999.90;;;;;;;8.50;100.00;100463.84;5017641;28;20440;-74
2022/11/07 07:23:27;;;;;;;1999.90;999.90;;;;;;;8.55;100.00;100458.59;5020386;28;20033;-74
2022/11/07 07:25:52;;;;;;;1999.90;999.90;;;;;;;8.60;100.00;100472.63;5018183;28;20041;-74
2022/11/07 07:28:17;;;;;;;1999.90;999.90;;;;;;;8.68;100.00;100476.13;5017676;28;20037;-74
2022/11/07 07:30:43;;;;;;;1999.90;999.90;;;;;;;8.75;100.00;100477.91;5018575;28;20103;-74
2022/11/07 07:33:08;;;;;;;1999.90;999.90;;;;;;;8.83;100.00;100480.53;5020883;28;20033;-74
2022/11/07 07:35:33;;;;;;;1999.90;999.90;;;;;;;8.89;100.00;100484.94;5020132;28;20046;-75
2022/11/07 07:37:59;;;;;;;1999.90;999.90;;;;;;;8.94;100.00;100477.91;5016661;28;20038;-74
2022/11/07 07:40:24;;;;;;;1999.90;999.90;;;;;;;8.99;100.00;100471.75;5017802;28;20109;-74
2022/11/07 07:42:49;;;;;;;1999.90;999.90;;;;;;;9.06;100.00;100471.75;5022561;28;20041;-74
2022/11/07 07:45:16;;;;;;;1999.90;999.90;;;;;;;9.10;100.00;100473.50;5017829;28;20100;-74
2022/11/07 07:47:41;;;;;;;1999.90;999.90;;;;;;;9.17;100.00;100476.13;5019919;28;20037;-74
2022/11/07 07:50:09;;;;;;;1999.90;999.90;;;;;;;9.26;100.00;100477.88;5016082;28;20084;-74
2022/11/07 07:52:35;;;;;;;1999.90;999.90;;;;;;;9.29;100.00;100480.50;5023518;28;20036;-74
2022/11/07 07:55:00;;;;;;;1999.90;999.90;;;;;;;9.32;100.00;100483.13;5019249;28;20500;-74
2022/11/07 07:57:25;;;;;;;1999.90;999.90;;;;;;;9.35;99.80;100482.22;5019167;28;20041;-74
2022/11/07 07:59:51;;;;;;;1999.90;999.90;;;;;;;9.44;99.92;100474.31;5018634;28;20415;-74
2022/11/07 08:02:16;;;;;;;1999.90;999.90;;;;;;;9.55;99.85;100479.56;5022112;28;20487;-74
2022/11/07 08:04:42;;;;;;;1999.90;999.90;;;;;;;9.60;99.08;100472.53;5019147;28;20566;-74
2022/11/07 08:07:08;;;;;;;1999.90;999.90;;;;;;;9.68;99.35;100483.03;5019104;28;20443;-74
2022/11/07 08:09:35;;;;;;;1999.90;999.90;;;;;;;9.71;99.04;100481.25;5019303;28;20037;-74
2022/11/07 08:12:10;;;;;;;1999.90;999.90;;;;;;;9.84;98.85;100482.09;5020045;28;20132;-74
2022/11/07 08:14:35;;;;;;;1999.90;999.90;;;;;;;9.91;98.54;100483.84;5020274;28;20065;-73
2022/11/07 08:17:00;;;;;;;1999.90;999.90;;;;;;;10.02;98.88;100489.94;5021394;28;20083;-73
2022/11/07 08:19:25;;;;;;;1999.90;999.90;;;;;;;10.10;98.21;100493.41;5020930;28;20046;-74
2022/11/07 08:21:51;;;;;;;1999.90;999.90;;;;;;;10.19;98.09;100483.69;5026154;28;20068;-74
2022/11/07 08:24:16;;;;;;;1999.90;999.90;;;;;;;10.25;97.75;100491.59;5022747;28;20037;-74
2022/11/07 08:26:41;;;;;;;1999.90;999.90;;;;;;;10.34;97.79;100493.31;5023537;28;20044;-74
2022/11/07 08:29:07;;;;;;;1999.90;999.90;;;;;;;10.40;97.50;100488.91;5024192;28;20037;-74
2022/11/07 08:31:32;;;;;;;1999.90;999.90;;;;;;;10.41;96.86;100485.34;5024668;28;20125;-74
2022/11/07 08:33:59;;;;;;;1999.90;999.90;;;;;;;10.47;97.12;100471.25;5022982;28;20061;-74
2022/11/07 08:36:25;;;;;;;1999.90;999.90;;;;;;;10.51;97.71;100470.34;5025416;28;20028;-74
2022/11/07 08:38:50;;;;;;;1999.90;999.90;;;;;;;10.57;97.30;100475.56;5019539;28;20049;-74
2022/11/07 08:41:16;;;;;;;1999.90;999.90;;;;;;;10.66;96.57;100482.53;5022326;28;20030;-74
2022/11/07 08:43:41;;;;;;;1999.90;999.90;;;;;;;10.78;96.76;100493.03;5022473;28;20052;-73
2022/11/07 08:46:06;;;;;;;1999.90;999.90;;;;;;;10.85;95.67;100486.81;5020623;28;20113;-74
2022/11/07 08:48:32;;;;;;;1999.90;999.90;;;;;;;10.89;95.44;100485.88;5022812;28;20053;-74
2022/11/07 08:50:58;;;;;;;1999.90;999.90;;;;;;;11.00;95.11;100487.56;5020338;28;20037;-74
2022/11/07 08:53:25;;;;;;;1999.90;999.90;;;;;;;11.04;94.60;100492.81;5017096;28;20112;-74
2022/11/07 08:55:50;;;;;;;1999.90;999.90;;;;;;;11.10;94.52;100491.88;5025116;28;20520;-74
2022/11/07 08:58:16;;;;;;;1999.90;999.90;;;;;;;11.17;94.14;100480.38;5023644;28;20033;-74
2022/11/07 09:00:42;;;;;;;1999.90;999.90;;;;;;;11.21;93.34;100482.06;5018483;28;20041;-74
2022/11/07 09:03:07;;;;;;;1999.90;999.90;;;;;;;11.25;93.33;100486.44;5019896;28;20041;-73
2022/11/07 09:05:34;;;;;;;1999.90;999.90;;;;;;;11.33;92.73;100476.69;5024625;28;20087;-74
2022/11/07 09:07:59;;;;;;;1999.90;999.90;;;;;;;11.40;94.07;100481.03;5022046;28;20026;-74
2022/11/07 09:10:25;;;;;;;1999.90;999.90;;;;;;;11.53;93.70;100486.19;5024267;28;20472;-75
2022/11/07 09:12:51;;;;;;;1999.90;999.90;;;;;;;11.56;91.63;100481.72;5023291;28;20042;-74
2022/11/07 09:15:18;;;;;;;1999.90;999.90;;;;;;;11.62;91.24;100478.13;5022773;28;20488;-74
2022/11/07 09:17:45;;;;;;;1999.90;999.90;;;;;;;11.73;91.23;100480.66;5024521;28;20076;-75
2022/11/07 09:20:10;;;;;;;1999.90;999.90;;;;;;;11.76;90.48;100489.44;5020003;28;20065;-74
2022/11/07 09:22:36;;;;;;;1999.90;999.90;;;;;;;11.89;90.61;100486.66;5024033;28;20071;-74
2022/11/07 09:25:01;;;;;;;1999.90;999.90;;;;;;;12.00;90.47;100490.06;5022465;28;20033;-74
2022/11/07 09:27:27;;;;;;;1999.90;999.90;;;;;;;12.07;89.38;100491.72;5025043;28;20508;-74
2022/11/07 09:29:52;;;;;;;1999.90;999.90;;;;;;;12.17;88.70;100487.19;5020137;28;20050;-74
2022/11/07 09:32:17;;;;;;;1999.90;999.90;;;;;;;12.16;87.53;100496.91;5021006;28;20045;-74
2022/11/07 09:34:45;;;;;;;1999.90;999.90;;;;;;;12.25;88.57;100496.78;5020436;28;20121;-74
2022/11/07 09:37:11;;;;;;;1999.90;999.90;;;;;;;12.34;88.56;100489.59;5020830;28;20563;-74
2022/11/07 09:39:36;;;;;;;1999.90;999.90;;;;;;;12.44;87.74;100492.13;5020589;28;20034;-74
2022/11/07 09:42:21;;;;;;;1999.90;999.90;;;;;;;12.50;88.14;100485.84;5021533;28;20057;-75
2022/11/07 09:44:57;;;;;;;1999.90;999.90;;;;;;;12.57;87.76;100490.13;5019304;28;20037;-74
2022/11/07 09:48:03;;;;;;;1999.90;999.90;;;;;;;12.65;87.52;100492.69;5021062;28;20046;-74
2022/11/07 09:50:40;;;;;;;1999.90;999.90;;;;;;;12.77;87.49;100491.63;5020146;28;20042;-74
2022/11/07 09:53:21;;;;;;;1999.90;999.90;;;;;;;12.82;85.65;100503.03;5020662;28;20507;-74
2022/11/07 09:56:02;;;;;;;1999.90;999.90;;;;;;;12.76;85.64;100500.44;5021345;28;20045;-74
2022/11/07 09:58:35;;;;;;;1999.90;999.90;;;;;;;12.72;85.56;100492.56;5014987;28;20114;-74
2022/11/07 10:01:04;;;;;;;1999.90;999.90;;;;;;;12.75;85.94;100491.63;5020929;28;20500;-73
2022/11/07 10:03:33;;;;;;;1999.90;999.90;;;;;;;12.77;86.30;100488.97;5017687;28;20044;-74
2022/11/07 10:06:21;;;;;;;1999.90;999.90;;;;;;;12.74;85.79;100483.75;5022559;28;20072;-74
2022/11/07 10:09:10;;;;;;;1999.90;999.90;;;;;;;12.79;86.38;100487.19;5002783;28;20126;-74
2022/11/07 10:11:57;;;;;;;1999.90;999.90;;;;;;;12.87;86.30;100486.16;5021089;28;20116;-74
2022/11/07 10:14:36;;;;;;;1999.90;999.90;;;;;;;12.86;86.10;100480.88;5018232;28;20088;-74
2022/11/07 10:17:24;;;;;;;1999.90;999.90;;;;;;;12.86;85.90;100478.22;5020384;28;20049;-74
2022/11/07 10:20:05;;;;;;;1999.90;999.90;;;;;;;12.88;85.57;100481.72;5019971;28;20381;-74
2022/11/07 10:22:49;;;;;;;1999.90;999.90;;;;;;;13.00;84.99;100480.66;5019774;28;20037;-74
2022/11/07 10:25:26;;;;;;;1999.90;999.90;;;;;;;13.03;85.40;100470.88;5018618;28;20280;-74
2022/11/07 10:28:10;;;;;;;1999.90;999.90;;;;;;;13.13;83.81;100482.19;5023587;28;20041;-74
2022/11/07 10:30:37;;;;;;;1999.90;999.90;;;;;;;13.23;84.09;100485.53;5023401;28;20061;-75
2022/11/07 10:33:19;;;;;;;1999.90;999.90;;;;;;;13.27;83.81;100485.50;5020295;28;20049;-74
2022/11/07 10:35:54;;;;;;;1999.90;999.90;;;;;;;13.34;83.52;100481.84;5020397;28;20279;-74
2022/11/07 10:38:25;;;;;;;1999.90;999.90;;;;;;;13.42;83.50;100483.50;5017265;28;20045;-74
2022/11/07 10:40:51;;;;;;;1999.90;999.90;;;;;;;13.47;83.27;100477.19;5023982;28;20417;-74
2022/11/07 10:43:38;;;;;;;1999.90;999.90;;;;;;;13.51;82.57;100472.69;5022316;28;20059;-74
2022/11/07 10:46:17;;;;;;;1999.90;999.90;;;;;;;13.54;82.63;100468.19;5020158;28;20033;-74
2022/11/07 10:48:51;;;;;;;1999.90;999.90;;;;;;;13.65;82.89;100475.97;5017671;28;20120;-74
2022/11/07 10:51:16;;;;;;;1999.90;999.90;;;;;;;13.71;83.26;100469.66;5022620;28;20056;-74
2022/11/07 10:53:43;;;;;;;1999.90;999.90;;;;;;;13.86;82.20;100474.66;5019186;28;20112;-74
2022/11/07 10:56:11;;;;;;;1999.90;999.90;;;;;;;13.99;80.66;100469.94;5021812;28;20395;-73
2022/11/07 10:58:43;;;;;;;1999.90;999.90;;;;;;;14.03;78.93;100469.00;5019827;28;20033;-74